Time;durP1;ratioP1;P1;durP2;ratioP2;P2;SDS_P1;SDS_P2;PMS_P1;PMS_P2;Temp;Humidity;BMP_temperature;BMP_pressure;BME280_temperature;BME280_humidity;BME280_pressure;Samples;Min_cycle;Max_cycle;Signal;HPM_P1;HPM_P2
2022/03/31 03:00:20;;;;;;;17.47;15.63;;;6.80;99.90;;;;;;6072821;22;20170;-79
2022/03/31 03:02:46;;;;;;;21.50;19.40;;;6.70;99.90;;;;;;4979401;28;20204;-79
2022/03/31 03:05:12;;;;;;;24.83;22.73;;;6.70;99.90;;;;;;4997673;28;20180;-79
2022/03/31 03:07:38;;;;;;;27.43;25.17;;;6.70;99.90;;;;;;5001372;28;20219;-78
2022/03/31 03:10:05;;;;;;;29.07;26.80;;;6.70;99.90;;;;;;5007104;28;20184;-78
2022/03/31 03:12:31;;;;;;;29.73;27.30;;;6.70;99.90;;;;;;5000511;28;20215;-79
2022/03/31 03:14:57;;;;;;;28.27;25.93;;;6.70;99.90;;;;;;5025283;23;20228;-80
2022/03/31 03:17:23;;;;;;;24.50;22.43;;;6.70;99.90;;;;;;4993071;28;20180;-80
2022/03/31 03:19:49;;;;;;;26.43;24.10;;;6.70;99.90;;;;;;4989720;28;20219;-80
2022/03/31 03:22:14;;;;;;;26.70;24.60;;;6.70;99.90;;;;;;5001382;28;20188;-79
2022/03/31 03:24:40;;;;;;;25.50;23.40;;;6.70;99.90;;;;;;4981741;28;20204;-79
2022/03/31 03:27:06;;;;;;;24.70;22.60;;;6.70;99.90;;;;;;4980719;28;20242;-80
2022/03/31 03:29:32;;;;;;;25.80;23.53;;;6.70;99.90;;;;;;4980798;28;20331;-80
2022/03/31 03:31:58;;;;;;;23.67;21.57;;;6.70;99.90;;;;;;4980007;28;20188;-79
2022/03/31 03:34:24;;;;;;;21.10;19.00;;;6.70;99.90;;;;;;4996369;28;20208;-80
2022/03/31 03:36:49;;;;;;;19.37;17.37;;;6.70;99.90;;;;;;4979296;28;20207;-79
2022/03/31 03:39:15;;;;;;;17.60;15.90;;;6.70;99.90;;;;;;4978024;28;20291;-79
2022/03/31 03:41:41;;;;;;;20.73;18.73;;;6.60;99.90;;;;;;4978295;28;20664;-79
2022/03/31 03:44:07;;;;;;;21.73;19.47;;;6.60;99.90;;;;;;4996031;28;20316;-77
2022/03/31 03:46:34;;;;;;;21.47;19.27;;;6.60;99.90;;;;;;4978357;28;20199;-79
2022/03/31 03:49:00;;;;;;;21.67;19.53;;;6.60;99.90;;;;;;4998022;28;20664;-78
2022/03/31 03:51:27;;;;;;;22.20;20.03;;;6.60;99.90;;;;;;5008619;28;20183;-79
2022/03/31 03:53:55;;;;;;;26.03;23.70;;;6.50;99.90;;;;;;4989981;28;20177;-79
2022/03/31 03:56:20;;;;;;;30.50;27.90;;;6.60;99.90;;;;;;4995697;28;20195;-79
2022/03/31 03:58:46;;;;;;;30.20;27.70;;;6.50;99.90;;;;;;5003639;28;20200;-78
2022/03/31 04:01:12;;;;;;;30.90;28.33;;;6.60;99.90;;;;;;4995828;28;20204;-79
2022/03/31 04:03:38;;;;;;;28.23;25.70;;;6.50;99.90;;;;;;4995772;28;20196;-79
2022/03/31 04:06:03;;;;;;;24.43;22.07;;;6.60;99.90;;;;;;4983488;28;20204;-80
2022/03/31 04:08:29;;;;;;;21.57;19.30;;;6.60;99.90;;;;;;4994960;28;20184;-79
2022/03/31 04:10:55;;;;;;;25.63;23.03;;;6.50;99.90;;;;;;4995628;28;20554;-79
2022/03/31 04:13:21;;;;;;;25.97;23.57;;;6.50;99.90;;;;;;4978215;28;20664;-78
2022/03/31 04:15:47;;;;;;;24.57;21.97;;;6.50;99.90;;;;;;4996773;28;20212;-79
2022/03/31 04:18:13;;;;;;;21.47;19.17;;;6.50;99.90;;;;;;4980834;28;20219;-79
2022/03/31 04:20:38;;;;;;;21.47;18.70;;;6.50;99.90;;;;;;4980256;28;20184;-79
2022/03/31 04:23:05;;;;;;;21.83;19.80;;;6.50;99.90;;;;;;4979774;28;20180;-79
2022/03/31 04:25:31;;;;;;;19.77;17.77;;;6.60;99.90;;;;;;4980475;28;20235;-80
2022/03/31 04:27:57;;;;;;;22.87;20.50;;;6.60;99.90;;;;;;4980385;28;20205;-80
2022/03/31 04:30:23;;;;;;;21.97;19.77;;;6.60;99.90;;;;;;4980627;28;20184;-79
2022/03/31 04:32:51;;;;;;;26.10;23.67;;;6.60;99.90;;;;;;4963953;28;20212;-79
2022/03/31 04:35:17;;;;;;;33.03;30.33;;;6.60;99.90;;;;;;4975356;28;20220;-78
2022/03/31 04:37:43;;;;;;;51.17;47.37;;;6.60;99.90;;;;;;4993427;28;20296;-79
2022/03/31 04:40:10;;;;;;;34.70;31.90;;;6.60;99.90;;;;;;5004142;28;20231;-80
2022/03/31 04:42:36;;;;;;;51.50;47.57;;;6.70;99.90;;;;;;4976621;28;20189;-77
2022/03/31 04:45:05;;;;;;;28.77;26.27;;;6.70;99.90;;;;;;4997514;28;20275;-78
2022/03/31 04:47:30;;;;;;;21.63;19.40;;;6.70;99.90;;;;;;4995202;28;20178;-79
2022/03/31 04:49:57;;;;;;;25.10;22.53;;;6.70;99.90;;;;;;4977241;28;20275;-77
2022/03/31 04:52:23;;;;;;;21.80;19.50;;;6.70;99.90;;;;;;4966646;28;20748;-72
2022/03/31 04:54:49;;;;;;;21.83;18.23;;;6.80;99.90;;;;;;4985018;28;20213;-73
2022/03/31 04:57:18;;;;;;;19.77;16.63;;;6.80;99.90;;;;;;4972819;28;20193;-72
2022/03/31 04:59:44;;;;;;;18.43;15.50;;;6.80;99.90;;;;;;4988560;28;20707;-73
2022/03/31 05:02:13;;;;;;;18.40;15.97;;;6.70;99.90;;;;;;4990744;28;20212;-71
2022/03/31 05:04:40;;;;;;;21.03;16.17;;;6.70;99.90;;;;;;4972362;28;20204;-72
2022/03/31 05:07:06;;;;;;;21.20;19.00;;;6.80;99.90;;;;;;4991197;28;20242;-72
2022/03/31 05:09:32;;;;;;;23.53;21.23;;;6.80;99.90;;;;;;4991134;28;20188;-72
2022/03/31 05:11:58;;;;;;;24.97;22.67;;;6.70;99.90;;;;;;4988202;28;20212;-72
2022/03/31 05:14:24;;;;;;;26.67;24.17;;;6.70;99.90;;;;;;4987398;28;20270;-72
2022/03/31 05:16:50;;;;;;;26.17;23.77;;;6.70;99.90;;;;;;4973659;28;20322;-71
2022/03/31 05:19:16;;;;;;;26.97;24.30;;;6.70;99.90;;;;;;4991255;28;20231;-72
2022/03/31 05:21:42;;;;;;;23.33;21.13;;;6.70;99.90;;;;;;4991395;28;20204;-72
2022/03/31 05:24:08;;;;;;;19.80;17.80;;;6.70;99.90;;;;;;4973886;28;20204;-72
2022/03/31 05:26:33;;;;;;;20.73;18.27;;;6.80;99.90;;;;;;4988828;28;20184;-72
2022/03/31 05:29:00;;;;;;;26.47;23.90;;;6.80;99.90;;;;;;4988592;28;20550;-71
2022/03/31 05:31:26;;;;;;;26.33;24.03;;;6.90;99.90;;;;;;4970766;28;20621;-73
2022/03/31 05:33:52;;;;;;;27.83;25.43;;;6.90;99.90;;;;;;4968992;28;20278;-73
2022/03/31 05:36:17;;;;;;;25.53;23.13;;;7.00;99.90;;;;;;4981041;28;20267;-72
2022/03/31 05:38:43;;;;;;;22.93;20.73;;;7.00;99.90;;;;;;4976517;28;20574;-73
2022/03/31 05:41:09;;;;;;;20.57;17.57;;;7.00;99.90;;;;;;4991363;28;20180;-72
2022/03/31 05:43:36;;;;;;;19.20;17.20;;;7.00;99.90;;;;;;4991220;28;20181;-72
2022/03/31 05:46:01;;;;;;;20.90;18.80;;;7.00;99.90;;;;;;4973782;28;20703;-73
2022/03/31 05:48:28;;;;;;;19.83;17.83;;;7.00;99.90;;;;;;4973217;28;20188;-72
2022/03/31 05:50:54;;;;;;;21.47;19.17;;;7.00;99.90;;;;;;4991230;28;20304;-72
2022/03/31 05:53:20;;;;;;;20.67;18.47;;;7.00;99.90;;;;;;4974063;28;20578;-72
2022/03/31 05:55:46;;;;;;;24.33;18.20;;;7.00;99.90;;;;;;4991213;28;20204;-72
2022/03/31 05:58:13;;;;;;;24.47;20.43;;;7.00;99.90;;;;;;4973025;28;20274;-72
2022/03/31 06:00:39;;;;;;;21.93;19.73;;;7.00;99.90;;;;;;4971913;28;20192;-72
2022/03/31 06:03:06;;;;;;;23.67;19.77;;;7.00;99.90;;;;;;4970132;28;20200;-71
2022/03/31 06:05:32;;;;;;;22.40;19.17;;;7.00;99.90;;;;;;4993395;28;20707;-72
2022/03/31 06:07:59;;;;;;;23.30;18.87;;;7.00;99.90;;;;;;4994573;28;20203;-73
2022/03/31 06:10:25;;;;;;;21.87;19.57;;;7.00;99.90;;;;;;4977630;28;20177;-72
2022/03/31 06:12:50;;;;;;;20.83;18.20;;;7.00;99.90;;;;;;4995118;28;20323;-72
2022/03/31 06:15:17;;;;;;;22.43;19.27;;;7.00;99.90;;;;;;4994923;28;20715;-72
2022/03/31 06:17:45;;;;;;;24.00;20.83;;;7.00;99.90;;;;;;4977153;28;20180;-72
2022/03/31 06:20:12;;;;;;;21.67;19.47;;;7.00;99.90;;;;;;4994508;28;20658;-73
2022/03/31 06:22:38;;;;;;;22.03;19.83;;;7.10;99.90;;;;;;4994280;28;20195;-72
2022/03/31 06:25:06;;;;;;;24.60;21.43;;;7.10;99.90;;;;;;4994763;28;20208;-71
2022/03/31 06:27:33;;;;;;;24.07;20.23;;;7.10;99.90;;;;;;4977154;28;20237;-71
2022/03/31 06:29:59;;;;;;;24.10;21.20;;;7.20;99.90;;;;;;4977326;28;20279;-72
2022/03/31 06:32:25;;;;;;;22.83;19.97;;;7.20;99.90;;;;;;4994604;28;20275;-72
2022/03/31 06:34:51;;;;;;;23.27;20.13;;;7.20;99.90;;;;;;4977197;28;20208;-72
2022/03/31 06:37:17;;;;;;;22.80;19.37;;;7.30;99.90;;;;;;4994129;28;20188;-71
2022/03/31 06:39:43;;;;;;;22.30;18.63;;;7.30;99.90;;;;;;4994183;28;20563;-72
2022/03/31 06:42:10;;;;;;;21.53;17.47;;;7.40;99.90;;;;;;4994608;28;20230;-72
2022/03/31 06:44:36;;;;;;;24.70;18.33;;;7.40;99.90;;;;;;4977122;28;20698;-71
2022/03/31 06:47:03;;;;;;;21.03;17.80;;;7.50;99.90;;;;;;4994450;28;20295;-71
2022/03/31 06:49:29;;;;;;;23.93;18.20;;;7.50;99.90;;;;;;4976657;28;20185;-72
2022/03/31 06:51:55;;;;;;;26.57;17.87;;;7.50;99.90;;;;;;4994298;28;20198;-71
2022/03/31 06:54:20;;;;;;;23.00;19.97;;;7.60;99.90;;;;;;4994382;28;20200;-71
2022/03/31 06:56:48;;;;;;;31.77;25.43;;;7.70;99.90;;;;;;4976805;28;20665;-72
2022/03/31 06:59:14;;;;;;;30.47;26.00;;;7.70;99.90;;;;;;4993622;28;20291;-72
2022/03/31 07:01:40;;;;;;;25.70;23.07;;;7.70;99.90;;;;;;4993856;28;20287;-72
2022/03/31 07:04:07;;;;;;;28.50;24.60;;;7.80;99.90;;;;;;4993669;28;20196;-72
2022/03/31 07:06:34;;;;;;;27.77;22.13;;;7.80;99.90;;;;;;4994324;28;20188;-71
2022/03/31 07:09:00;;;;;;;27.40;20.97;;;7.80;99.90;;;;;;4990559;28;20670;-71
2022/03/31 07:11:26;;;;;;;28.40;25.27;;;7.90;99.90;;;;;;4980886;28;20624;-71
2022/03/31 07:13:52;;;;;;;31.07;27.03;;;7.80;99.90;;;;;;4973886;28;20208;-72
2022/03/31 07:16:18;;;;;;;29.90;26.70;;;7.80;99.90;;;;;;4976152;28;20196;-73
2022/03/31 07:18:44;;;;;;;29.87;21.83;;;7.80;99.90;;;;;;4992050;28;20232;-71
2022/03/31 07:21:10;;;;;;;33.57;25.73;;;7.90;99.90;;;;;;4976309;28;20583;-71
2022/03/31 07:23:37;;;;;;;37.83;34.37;;;8.00;99.90;;;;;;4993451;28;20181;-74
2022/03/31 07:26:04;;;;;;;56.20;51.60;;;8.10;99.90;;;;;;4993813;28;20602;-71
2022/03/31 07:28:30;;;;;;;74.10;68.57;;;8.20;99.90;;;;;;4993093;28;20193;-74
2022/03/31 07:30:56;;;;;;;62.47;57.47;;;8.40;99.90;;;;;;4993079;28;20211;-73
2022/03/31 07:33:22;;;;;;;57.27;52.57;;;8.40;99.90;;;;;;4993347;28;20547;-73
2022/03/31 07:35:48;;;;;;;55.33;50.73;;;8.30;99.90;;;;;;4976043;28;20619;-72
2022/03/31 07:38:17;;;;;;;54.03;49.40;;;8.30;99.90;;;;;;4975587;28;20183;-73
2022/03/31 07:40:44;;;;;;;52.40;48.00;;;8.30;99.90;;;;;;4975293;28;20216;-71
2022/03/31 07:43:10;;;;;;;56.23;51.83;;;8.30;99.90;;;;;;4975886;28;20190;-72
2022/03/31 07:45:36;;;;;;;55.93;51.73;;;8.30;99.90;;;;;;4993248;28;20224;-72
2022/03/31 07:48:04;;;;;;;57.17;52.63;;;8.30;99.90;;;;;;4975669;28;20181;-71
2022/03/31 07:50:30;;;;;;;55.67;51.07;;;8.30;99.90;;;;;;4993140;28;20180;-72
2022/03/31 07:52:57;;;;;;;56.10;51.83;;;8.30;99.90;;;;;;4993262;28;20187;-71
2022/03/31 07:55:23;;;;;;;59.17;54.67;;;8.20;99.90;;;;;;4992307;28;20579;-71
2022/03/31 07:57:50;;;;;;;61.93;57.03;;;8.30;99.90;;;;;;4993105;28;20188;-71
2022/03/31 08:00:17;;;;;;;58.20;53.47;;;8.40;99.90;;;;;;4974110;28;20299;-71
2022/03/31 08:02:46;;;;;;;59.80;55.27;;;8.40;99.90;;;;;;4974787;28;20180;-71
2022/03/31 08:05:14;;;;;;;60.17;55.37;;;8.50;99.90;;;;;;4975557;28;20201;-71
2022/03/31 08:07:41;;;;;;;51.77;47.47;;;8.70;99.90;;;;;;4975281;28;20556;-70
2022/03/31 08:10:08;;;;;;;28.50;25.77;;;8.80;99.90;;;;;;4992725;28;20202;-72
2022/03/31 08:12:34;;;;;;;24.77;18.47;;;9.00;99.90;;;;;;4992762;28;20649;-73
2022/03/31 08:15:03;;;;;;;24.33;17.77;;;9.10;99.90;;;;;;4992768;28;20223;-72
2022/03/31 08:17:30;;;;;;;27.17;19.50;;;9.10;99.90;;;;;;4992552;28;20559;-73
2022/03/31 08:19:56;;;;;;;25.40;18.30;;;9.00;99.90;;;;;;4992669;28;20282;-73
2022/03/31 08:22:23;;;;;;;26.10;19.90;;;9.10;99.90;;;;;;4975639;28;20649;-73
2022/03/31 08:24:50;;;;;;;27.37;20.33;;;9.20;99.90;;;;;;4974866;28;20746;-71
2022/03/31 08:27:16;;;;;;;27.07;19.43;;;9.30;99.90;;;;;;4993653;28;20183;-72
2022/03/31 08:29:42;;;;;;;25.23;18.60;;;9.10;99.90;;;;;;4975167;28;20272;-72
2022/03/31 08:32:08;;;;;;;24.40;18.73;;;8.90;99.90;;;;;;4975463;28;20181;-73
2022/03/31 08:34:34;;;;;;;29.00;21.03;;;8.90;99.90;;;;;;4975836;28;20215;-72
2022/03/31 08:37:00;;;;;;;27.57;20.17;;;9.00;99.90;;;;;;4992411;28;20210;-73
2022/03/31 08:39:26;;;;;;;25.87;18.87;;;9.30;99.90;;;;;;4974739;28;20208;-73
2022/03/31 08:41:52;;;;;;;28.50;19.73;;;9.60;99.90;;;;;;4974757;28;20178;-73
2022/03/31 08:44:20;;;;;;;27.37;19.60;;;9.70;99.90;;;;;;4974911;28;20200;-73
2022/03/31 08:46:48;;;;;;;25.30;18.20;;;9.80;99.90;;;;;;4992006;28;20180;-73
2022/03/31 08:49:14;;;;;;;27.13;18.43;;;9.70;99.90;;;;;;4974675;28;20188;-73
2022/03/31 08:51:42;;;;;;;23.93;18.23;;;9.70;99.90;;;;;;4974658;28;20239;-73
2022/03/31 08:54:08;;;;;;;26.37;18.83;;;9.70;99.90;;;;;;4992114;28;20236;-73
2022/03/31 08:56:34;;;;;;;24.13;19.00;;;9.70;99.90;;;;;;4974588;28;20679;-72
2022/03/31 08:59:00;;;;;;;25.43;18.33;;;9.80;99.90;;;;;;4974442;28;20319;-73
2022/03/31 09:01:28;;;;;;;25.20;19.33;;;10.10;99.90;;;;;;4992521;28;20176;-73
2022/03/31 09:03:54;;;;;;;22.57;17.93;;;10.30;99.90;;;;;;4974384;28;20188;-75
2022/03/31 09:06:24;;;;;;;64.83;56.03;;;10.30;99.90;;;;;;4991723;28;20598;-74
2022/03/31 09:08:57;;;;;;;25.97;17.37;;;10.40;99.90;;;;;;4974469;28;20640;-73
2022/03/31 09:11:31;;;;;;;21.83;17.43;;;10.10;99.90;;;;;;4991802;28;20195;-75
2022/03/31 09:13:59;;;;;;;26.30;19.30;;;9.90;99.90;;;;;;4974166;28;20188;-75
2022/03/31 09:16:35;;;;;;;23.17;18.93;;;9.60;99.90;;;;;;4997580;23;20231;-76
2022/03/31 09:19:09;;;;;;;23.50;19.27;;;9.50;99.90;;;;;;4992817;28;20222;-74
2022/03/31 09:21:58;;;;;;;22.57;17.73;;;9.40;99.90;;;;;;4977426;28;20191;-75
2022/03/31 09:24:27;;;;;;;24.77;18.40;;;9.40;99.90;;;;;;4973803;28;20316;-75
2022/03/31 09:26:56;;;;;;;21.40;18.40;;;9.50;99.90;;;;;;4954605;28;20177;-77
2022/03/31 09:29:24;;;;;;;23.17;19.27;;;9.60;99.90;;;;;;4954864;28;20185;-76
2022/03/31 09:31:51;;;;;;;23.40;19.13;;;9.70;99.90;;;;;;4972253;28;20607;-76
2022/03/31 09:34:18;;;;;;;23.17;18.80;;;9.70;99.90;;;;;;4972040;28;20200;-77
2022/03/31 09:36:53;;;;;;;26.40;20.50;;;9.90;99.90;;;;;;4958431;28;20283;-76
2022/03/31 09:39:22;;;;;;;28.33;20.90;;;10.00;99.90;;;;;;4958222;28;20200;-76
2022/03/31 09:41:52;;;;;;;22.93;18.70;;;10.00;99.90;;;;;;4958742;28;20183;-76
2022/03/31 09:44:23;;;;;;;24.47;18.87;;;10.00;99.90;;;;;;4958971;28;20232;-76
2022/03/31 09:46:50;;;;;;;24.37;18.57;;;10.10;99.90;;;;;;4977785;28;20701;-76
2022/03/31 09:49:17;;;;;;;22.83;17.57;;;10.20;99.90;;;;;;4971453;28;20314;-75
2022/03/31 09:51:51;;;;;;;21.57;16.93;;;10.10;99.90;;;;;;4968825;28;20645;-75
2022/03/31 09:54:19;;;;;;;20.97;17.07;;;10.10;99.90;;;;;;4957747;28;20283;-75
2022/03/31 09:56:46;;;;;;;22.20;17.47;;;10.10;99.90;;;;;;4957504;28;20205;-76
2022/03/31 09:59:14;;;;;;;22.83;17.33;;;10.10;99.90;;;;;;4957926;28;20562;-76
2022/03/31 10:01:41;;;;;;;22.40;16.67;;;10.00;99.90;;;;;;4975330;28;20213;-76
2022/03/31 10:04:08;;;;;;;22.40;17.27;;;9.90;99.90;;;;;;4975096;28;20189;-75
2022/03/31 10:06:36;;;;;;;23.13;17.67;;;9.90;99.90;;;;;;4958434;28;20204;-75
2022/03/31 10:09:03;;;;;;;22.87;17.60;;;10.00;99.90;;;;;;4974816;28;20189;-76
2022/03/31 10:11:31;;;;;;;22.37;17.63;;;10.00;99.90;;;;;;4953210;29;20189;-76
2022/03/31 10:14:12;;;;;;;23.30;17.33;;;10.20;99.90;;;;;;4937413;29;20613;-75
2022/03/31 10:16:44;;;;;;;21.33;16.40;;;10.30;99.90;;;;;;4954289;29;20221;-76
2022/03/31 10:19:09;;;;;;;21.40;17.27;;;10.40;99.90;;;;;;4955971;29;20209;-76
2022/03/31 10:21:35;;;;;;;21.27;16.40;;;10.50;99.90;;;;;;4956082;28;20181;-74
2022/03/31 10:26:57;;;;;;;21.63;17.10;;;11.00;99.90;;;;;;4974797;28;20284;-75
2022/03/31 10:29:22;;;;;;;994.40;434.13;;;11.20;99.90;;;;;;4957767;28;20196;-75
2022/03/31 10:31:49;;;;;;;1225.67;561.43;;;11.20;99.90;;;;;;4957645;28;20177;-75
2022/03/31 10:34:15;;;;;;;1999.90;833.90;;;11.00;99.90;;;;;;4974978;28;20660;-76
2022/03/31 10:36:49;;;;;;;265.83;132.03;;;11.00;99.90;;;;;;4975559;28;20216;-76
2022/03/31 10:39:17;;;;;;;26.60;23.63;;;11.10;99.90;;;;;;4974643;28;20676;-73
2022/03/31 10:41:45;;;;;;;22.70;20.40;;;11.00;99.90;;;;;;4974604;28;20181;-73
2022/03/31 10:44:11;;;;;;;20.13;18.00;;;11.20;99.90;;;;;;4957234;28;20188;-73
2022/03/31 10:46:38;;;;;;;21.33;16.63;;;11.70;99.90;;;;;;4956789;28;20723;-70
2022/03/31 10:49:10;;;;;;;20.77;17.07;;;12.00;99.90;;;;;;4956918;28;20726;-68
2022/03/31 10:51:38;;;;;;;20.93;18.23;;;12.10;99.90;;;;;;4962092;28;20192;-76
2022/03/31 10:54:06;;;;;;;21.33;18.20;;;12.40;99.90;;;;;;4958599;28;20215;-77
2022/03/31 10:56:33;;;;;;;19.80;15.70;;;12.60;99.90;;;;;;4975933;28;20299;-77
2022/03/31 10:59:02;;;;;;;18.57;14.80;;;12.90;99.90;;;;;;4948301;28;20217;-77
2022/03/31 11:01:30;;;;;;;18.77;15.00;;;12.90;99.90;;;;;;4972038;28;20199;-76
2022/03/31 11:04:09;;;;;;;17.73;14.83;;;12.70;99.90;;;;;;4979343;28;20645;-77
2022/03/31 11:06:52;;;;;;;18.43;15.27;;;12.80;99.90;;;;;;4958246;28;20764;-79
2022/03/31 11:09:27;;;;;;;19.63;15.77;;;12.70;99.90;;;;;;4954380;29;20185;-78
2022/03/31 11:11:55;;;;;;;18.57;15.63;;;12.40;99.90;;;;;;4956028;29;20201;-78
2022/03/31 11:14:23;;;;;;;19.53;16.07;;;12.50;99.90;;;;;;4939931;29;20534;-75
2022/03/31 11:16:49;;;;;;;20.23;15.13;;;12.80;99.90;;;;;;4959192;29;20225;-78
2022/03/31 11:19:17;;;;;;;20.33;15.63;;;13.00;99.90;;;;;;4966809;28;20212;-79
2022/03/31 11:21:43;;;;;;;21.13;16.23;;;13.10;99.90;;;;;;4971983;28;20185;-70
2022/03/31 11:24:11;;;;;;;20.37;15.53;;;13.40;99.90;;;;;;4955298;28;20205;-72
2022/03/31 11:26:44;;;;;;;20.23;15.47;;;14.20;99.90;;;;;;4974030;28;20576;-70
2022/03/31 11:29:12;;;;;;;18.47;15.13;;;15.30;99.90;;;;;;4956482;28;20189;-70
2022/03/31 11:31:45;;;;;;;19.60;17.60;;;16.70;99.90;;;;;;4973866;28;20188;-70
2022/03/31 11:34:21;;;;;;;17.37;15.07;;;17.00;99.90;;;;;;4973960;28;20756;-70
2022/03/31 11:36:51;;;;;;;22.00;17.17;;;17.10;99.90;;;;;;4954097;29;20223;-70
2022/03/31 11:39:21;;;;;;;20.00;16.83;;;17.00;99.90;;;;;;4954977;29;20312;-70
2022/03/31 11:41:47;;;;;;;27.50;25.10;;;17.20;99.90;;;;;;4954661;29;20182;-71
2022/03/31 11:44:14;;;;;;;26.57;24.13;;;17.40;99.90;;;;;;4954723;29;20281;-70
2022/03/31 11:46:49;;;;;;;33.80;31.23;;;17.20;99.90;;;;;;4954482;29;20450;-70
2022/03/31 11:49:20;;;;;;;28.73;26.43;;;16.50;99.90;;;;;;4964423;28;20192;-71
2022/03/31 11:51:57;;;;;;;29.80;27.23;;;16.70;99.90;;;;;;4973754;28;20272;-69
2022/03/31 11:54:24;;;;;;;33.90;31.23;;;16.40;99.90;;;;;;4956784;28;20189;-75
2022/03/31 11:57:12;;;;;;;28.97;26.50;;;15.90;99.90;;;;;;4972301;28;20209;-76
2022/03/31 11:59:38;;;;;;;21.57;19.47;;;15.50;99.90;;;;;;4948109;28;20279;-75
2022/03/31 12:02:17;;;;;;;18.37;16.47;;;15.40;99.90;;;;;;4955882;28;20181;-76
2022/03/31 12:04:46;;;;;;;18.63;14.37;;;14.80;99.90;;;;;;4973265;28;20177;-76
2022/03/31 12:07:13;;;;;;;18.40;13.90;;;14.30;99.90;;;;;;4973081;28;20587;-76
2022/03/31 12:09:41;;;;;;;37.67;26.83;;;14.30;99.90;;;;;;4955791;28;20281;-77
2022/03/31 12:12:11;;;;;;;19.80;15.77;;;14.20;99.90;;;;;;4973801;28;20709;-76
2022/03/31 12:14:38;;;;;;;17.10;14.47;;;14.10;99.90;;;;;;4973168;28;20189;-76
2022/03/31 12:17:05;;;;;;;15.23;13.70;;;14.20;99.90;;;;;;4973576;28;20189;-77
2022/03/31 12:19:41;;;;;;;16.67;13.63;;;14.40;99.90;;;;;;4973945;28;20688;-76
2022/03/31 12:22:09;;;;;;;16.13;14.37;;;14.60;99.90;;;;;;4972834;28;20180;-76
2022/03/31 12:24:46;;;;;;;18.40;14.87;;;14.90;99.90;;;;;;4955557;28;20645;-76
2022/03/31 12:27:16;;;;;;;17.60;14.70;;;15.40;99.90;;;;;;4955718;28;20637;-76
2022/03/31 12:29:42;;;;;;;15.30;13.00;;;15.70;99.90;;;;;;4955777;28;20189;-77
2022/03/31 12:32:10;;;;;;;15.50;13.97;;;15.80;99.90;;;;;;4973964;28;20209;-77
2022/03/31 12:34:56;;;;;;;24.37;21.97;;;16.10;99.90;;;;;;4957497;28;20185;-77
2022/03/31 12:37:36;;;;;;;28.63;26.50;;;16.60;99.90;;;;;;4959314;28;20192;-77
2022/03/31 12:40:11;;;;;;;25.20;23.00;;;16.90;99.90;;;;;;4958560;28;20224;-77
2022/03/31 12:42:38;;;;;;;25.43;23.20;;;17.30;99.90;;;;;;4974024;28;20208;-77
2022/03/31 12:45:14;;;;;;;20.63;18.73;;;17.50;99.90;;;;;;4986064;28;20185;-78
2022/03/31 12:47:42;;;;;;;24.10;21.93;;;18.70;99.90;;;;;;4977059;28;20248;-77
2022/03/31 12:50:34;;;;;;;19.73;17.90;;;18.70;99.90;;;;;;4988410;28;20248;-78
2022/03/31 12:53:02;;;;;;;21.03;19.03;;;17.80;99.90;;;;;;4957911;28;20196;-76
2022/03/31 12:55:34;;;;;;;20.63;18.63;;;17.40;99.90;;;;;;4956590;28;20287;-77
2022/03/31 12:58:01;;;;;;;19.93;18.13;;;17.40;99.90;;;;;;4955805;28;20239;-77
2022/03/31 13:00:28;;;;;;;21.37;19.47;;;17.20;99.90;;;;;;4975543;28;20208;-77
2022/03/31 13:02:56;;;;;;;18.60;16.90;;;16.90;99.90;;;;;;4955146;28;20185;-77
2022/03/31 13:05:26;;;;;;;24.17;21.87;;;16.70;99.90;;;;;;4972429;28;20295;-77
2022/03/31 13:07:54;;;;;;;22.70;20.70;;;16.60;99.90;;;;;;4955680;28;20181;-78
2022/03/31 13:10:22;;;;;;;22.77;20.77;;;16.90;99.90;;;;;;4973720;28;20275;-78
2022/03/31 13:12:49;;;;;;;20.60;18.60;;;17.00;99.90;;;;;;4956772;28;20185;-77
2022/03/31 13:15:16;;;;;;;19.10;17.13;;;17.10;99.90;;;;;;4972930;28;20220;-77
2022/03/31 13:17:44;;;;;;;18.13;15.87;;;17.10;99.90;;;;;;4955830;28;20235;-77
2022/03/31 13:20:13;;;;;;;17.43;15.63;;;17.00;99.90;;;;;;4951385;28;20225;-74
2022/03/31 13:22:41;;;;;;;19.53;17.63;;;17.90;99.90;;;;;;4954476;28;20192;-76
2022/03/31 13:25:08;;;;;;;26.60;23.80;;;18.40;99.90;;;;;;4972076;28;20201;-77
2022/03/31 13:27:36;;;;;;;20.57;18.53;;;19.80;99.00;;;;;;4972605;28;20184;-78
2022/03/31 13:30:05;;;;;;;13.93;11.97;;;21.30;94.10;;;;;;4972987;28;20235;-78
2022/03/31 13:32:31;;;;;;;13.70;11.87;;;21.00;90.80;;;;;;4973956;28;20243;-76
2022/03/31 13:34:56;;;;;;;14.17;12.43;;;19.80;91.50;;;;;;4956553;28;20760;-77
2022/03/31 13:37:24;;;;;;;12.70;11.40;;;18.80;93.50;;;;;;4971670;28;20181;-75
2022/03/31 13:39:51;;;;;;;15.30;13.73;;;18.00;94.50;;;;;;4955876;28;20582;-76
2022/03/31 13:42:18;;;;;;;26.73;24.53;;;17.10;96.00;;;;;;4938167;29;20197;-78
2022/03/31 13:44:45;;;;;;;25.37;23.37;;;16.50;98.20;;;;;;4954482;29;20728;-78
2022/03/31 13:47:11;;;;;;;24.60;22.80;;;16.10;99.60;;;;;;4936446;29;20213;-77
2022/03/31 13:49:38;;;;;;;21.17;19.40;;;16.00;99.40;;;;;;4936982;28;20222;-76
2022/03/31 13:52:05;;;;;;;17.20;15.60;;;15.80;99.90;;;;;;4954837;28;20200;-77
2022/03/31 13:54:34;;;;;;;14.43;13.03;;;15.30;99.90;;;;;;4954897;28;20220;-76
2022/03/31 13:57:01;;;;;;;24.63;22.63;;;14.60;99.90;;;;;;4971546;28;20193;-77
2022/03/31 14:02:15;;;;;;;16.57;14.83;;;13.80;99.90;;;;;;4973309;28;20189;-76
2022/03/31 14:04:41;;;;;;;16.57;14.60;;;13.70;99.90;;;;;;4954940;28;20181;-76
2022/03/31 14:07:07;;;;;;;14.13;11.80;;;13.70;99.90;;;;;;4971031;28;20246;-77
2022/03/31 14:09:35;;;;;;;13.20;11.37;;;13.70;99.90;;;;;;4956129;28;20256;-76
2022/03/31 14:12:03;;;;;;;13.27;11.90;;;13.50;99.90;;;;;;4972109;28;20188;-77
2022/03/31 14:14:28;;;;;;;14.60;12.13;;;13.40;99.90;;;;;;4972760;28;20712;-77
2022/03/31 14:16:56;;;;;;;15.50;13.90;;;13.40;99.90;;;;;;4973732;28;20282;-76
2022/03/31 14:19:33;;;;;;;14.07;12.60;;;13.40;99.90;;;;;;4975493;28;20213;-77
2022/03/31 14:22:01;;;;;;;20.13;16.70;;;13.40;99.90;;;;;;4956529;28;20185;-76
2022/03/31 14:24:27;;;;;;;16.07;14.37;;;13.40;99.90;;;;;;4960713;28;20240;-77
2022/03/31 14:26:53;;;;;;;18.93;16.93;;;13.20;99.90;;;;;;4978065;28;20185;-77
2022/03/31 14:29:19;;;;;;;21.80;19.83;;;13.10;99.90;;;;;;4979928;28;20195;-77
2022/03/31 14:31:49;;;;;;;16.07;14.00;;;13.00;99.90;;;;;;4959267;28;20243;-75
2022/03/31 14:34:15;;;;;;;16.33;12.90;;;12.70;99.90;;;;;;4978599;28;20203;-77
2022/03/31 14:36:47;;;;;;;16.80;13.63;;;12.50;99.90;;;;;;4958506;28;20272;-74
2022/03/31 14:39:14;;;;;;;17.63;14.20;;;12.20;99.90;;;;;;4958152;28;20218;-75
2022/03/31 14:41:43;;;;;;;16.33;14.47;;;11.80;99.90;;;;;;4957723;28;20200;-75
2022/03/31 14:44:10;;;;;;;18.97;17.17;;;11.50;99.90;;;;;;4957831;28;20565;-75
2022/03/31 14:46:37;;;;;;;17.77;15.87;;;11.30;99.90;;;;;;4975024;28;20267;-75
2022/03/31 14:49:07;;;;;;;22.47;17.23;;;11.10;99.90;;;;;;4974934;28;20192;-74
2022/03/31 14:51:32;;;;;;;24.53;19.50;;;11.10;99.90;;;;;;4975132;28;20189;-75
2022/03/31 14:53:58;;;;;;;27.57;24.57;;;11.10;99.90;;;;;;4975125;28;20185;-74
2022/03/31 14:56:24;;;;;;;30.80;27.90;;;10.90;99.90;;;;;;4957905;28;20197;-73
2022/03/31 14:58:51;;;;;;;37.90;35.00;;;10.80;99.90;;;;;;4974254;28;20232;-74
2022/03/31 15:01:18;;;;;;;45.87;42.30;;;10.80;99.90;;;;;;4975673;28;20175;-75
2022/03/31 15:03:47;;;;;;;40.23;36.77;;;10.70;99.90;;;;;;4974819;28;20239;-74
2022/03/31 15:06:15;;;;;;;35.50;32.03;;;10.80;99.90;;;;;;4957702;28;20228;-75
2022/03/31 15:08:41;;;;;;;38.03;34.63;;;10.80;99.90;;;;;;4974273;28;20192;-75
2022/03/31 15:16:35;;;;;;;26.40;23.60;;;10.70;99.90;;;;;;5036411;22;20694;-71
2022/03/31 15:19:01;;;;;;;27.37;22.73;;;10.70;99.90;;;;;;5015177;28;20210;-71
2022/03/31 15:21:27;;;;;;;22.90;19.93;;;10.60;99.90;;;;;;5015486;28;20217;-72
2022/03/31 15:23:54;;;;;;;25.50;19.37;;;10.50;99.90;;;;;;5032998;28;20215;-73
2022/03/31 15:26:22;;;;;;;23.20;20.03;;;10.60;99.90;;;;;;5031732;28;20576;-73
2022/03/31 15:28:48;;;;;;;26.17;20.97;;;10.60;99.90;;;;;;5015240;28;20179;-73
2022/03/31 15:31:15;;;;;;;26.40;21.17;;;10.60;99.90;;;;;;5032993;28;20187;-73
2022/03/31 15:33:41;;;;;;;22.20;18.97;;;10.50;99.90;;;;;;5014966;28;20229;-73
2022/03/31 15:36:07;;;;;;;25.17;20.53;;;10.40;99.90;;;;;;5015463;28;20207;-73
2022/03/31 15:38:33;;;;;;;25.43;19.37;;;10.40;99.90;;;;;;5033476;28;20532;-73
2022/03/31 15:40:59;;;;;;;21.03;18.47;;;10.40;99.90;;;;;;5029149;28;20601;-73
2022/03/31 15:43:25;;;;;;;24.93;18.77;;;10.40;99.90;;;;;;5014890;28;20171;-74